To NAV CANADA Home Page Login to a new session Search on AWWS site Feedback and Comments Disclaimer Vers la page française équivalente Tips FAQ What's new on the site To the Forecasts and Observations / NOTAM section To "File a Flight Plan" website Publications and other links Update of the User's profile FIC Telephone Numbers My Weather Data Folder Route Weather Data Regional Weather Data Local Weather Data To the Forecasts and Observations / NOTAM section
Request Generated 05/29/2016 at 07:34:56 UTC . Weather information available at that time is displayed.

METAR/TAF

ARVIAT/NU    (show WxCam)

SPECI CYEK 290725Z AUTO 17006KT 6SM BR OVC003 M02/M02 A3032 RMK
SLP269=
SPECI CYEK 290722Z AUTO 16005KT 3SM BR OVC003 M02/M02 A3032 RMK
SLP269=
SPECI CYEK 290721Z AUTO 16006KT 2 1/2SM BR OVC003 M02/M02 A3032 RMK
VIS VRB 1 1/4-3 SLP269=
SPECI CYEK 290717Z AUTO 17005KT 1 1/2SM BR OVC003 M02/M02 A3032 RMK
VIS VRB 1-3 SLP269=
SPECI CYEK 290703Z AUTO 16006KT 1 1/4SM BR OVC003 M02/M02 A3032 RMK
VIS VRB 3/4-3 SLP269=
METAR CYEK 290700Z AUTO 15007KT 1 3/4SM BR OVC003 M02/M02 A3032 RMK
VIS VRB 1-3 SLP269=
SPECI CYEK 290659Z AUTO 15006KT 130V190 1 3/4SM BR OVC003 M02/M02
A3032 RMK VIS VRB 1-3 SLP269=
SPECI CYEK 290656Z AUTO 14005KT 130V190 2 1/2SM BR OVC003 M02/M02
A3032 RMK VIS VRB 1 1/2-3 SLP269=
SPECI CYEK 290653Z AUTO 17005KT 2SM BR OVC003 M02/M02 A3032 RMK VIS
VRB 1-3 SLP269=
SPECI CYEK 290649Z AUTO 18007KT 2 1/2SM BR OVC003 M02/M02 A3032 RMK
ICG PAST HR SLP270=
SPECI CYEK 290647Z AUTO 16005KT 2 1/2SM -SN OVC003 M02/M02 A3032 RMK
ICG PAST HR SLP270=
SPECI CYEK 290643Z AUTO 16008KT 1 1/2SM -SN OVC003 M02/M02 A3032 RMK
ICG PAST HR SLP270=
SPECI CYEK 290621Z AUTO 17007KT 1SM -SN OVC003 M02/M02 A3033 RMK ICG
PAST HR SLP273=
SPECI CYEK 290612Z AUTO 16006KT 1 1/4SM BR OVC003 M03/M03 A3033 RMK
VIS VRB 1/2-3 ICG PAST HR SLP273=
SPECI CYEK 290608Z AUTO 17007KT 1 1/2SM BR OVC003 M03/M03 A3033 RMK
VIS VRB 1-3 ICG PAST HR SLP273=
SPECI CYEK 290603Z AUTO 17006KT 1 1/2SM BR OVC003 M03/M03 A3033 RMK
VIS VRB 3/4-3 ICG INTMT SLP274=
SPECI CYEK 290601Z AUTO 17007KT 1SM BR VV003 M03/M03 A3033 RMK ICG
INTMT SLP273=
METAR CYEK 290600Z AUTO 17008KT 1SM -SN VV003 M03/M03 A3033 RMK ICG
INTMT SLP273=
SPECI CYEK 290551Z AUTO 17005KT 3/4SM -SN VV003 M02/M02 A3033 RMK ICG
SLP274=
SPECI CYEK 290545Z AUTO 15007KT 3/4SM -SN -FZRA VV003 M02/M02 A3033
RMK ICG SLP274=
SPECI CYEK 290538Z AUTO 16008KT 3/4SM -FZRA BR VV003 M02/M02 A3033
RMK ICG SLP273=
SPECI CYEK 290532Z AUTO 15008KT 120V180 3/4SM -FZRA -SN VV003 M02/M02
A3033 RMK ICG SLP273=
SPECI CYEK 290529Z AUTO 13005KT 120V190 3/4SM -SN VV003 M02/M02 A3033
RMK ICG SLP273=
SPECI CYEK 290525Z AUTO 17004KT 140V220 3/4SM -SN VV003 M02/M02 A3033
RMK ICG PAST HR SLP273=
SPECI CYEK 290516Z AUTO 21003KT 3/4SM BR VV003 M02/M02 A3033 RMK ICG
PAST HR SLP273=
SPECI CYEK 290502Z AUTO 19007KT 1 1/4SM BR VV003 M02/M02 A3033 RMK
VIS VRB 1-2 ICG INTMT SLP272=
METAR CYEK 290500Z AUTO 18006KT 1SM -FZRA BR VV003 M02/M02 A3033 RMK
ICG SLP272=

TAF CYEK 290538Z 2906/2918 18008KT 1/2SM FZFG VV002 TEMPO 2906/2918
3SM BR OVC005
BECMG 2910/2912 11008KT
RMK FCST BASED ON AUTO OBS. AUTO OBS REP NON-REPRESENTATIVE PCPN
TYPE NXT FCST BY 291200Z=
Your time UTC time
Weather data provided by Environment Canada and NAV CANADA